D/T METAR WX W/DIR W/SPE G/SPE TEMP DEWP
22/01/20 07:50 EGNJ 220750Z 23004KT 0100 R20/0250 FG OVC002 04/04 Q1037 FG SW (230°) 4.6mph 4°C 4°C
22/01/20 07:20 EGNJ 220720Z 23003KT 0100 R20/0300 FG OVC002 03/03 Q1037 FG SW (230°) 3.5mph 3°C 3°C
22/01/20 06:50 EGNJ 220650Z VRB02KT 0100 R20/0300 FG OVC002 03/03 Q1037 FG N (0°) 2.3mph 3°C 3°C
22/01/20 06:20 EGNJ 220620Z VRB02KT 0100 R20/0350 FG OVC002 03/03 Q1037 FG N (0°) 2.3mph 3°C 3°C
22/01/20 05:20 EGNJ 220520Z AUTO VRB01KT 0100 FG OVC000/// 03/03 Q1037 FG N (0°) 1.2mph 3°C 3°C
22/01/20 04:50 EGNJ 220450Z AUTO 22004KT 0100 FG OVC000/// 04/04 Q1037 FG SW (220°) 4.6mph 4°C 4°C
22/01/20 04:20 EGNJ 220420Z AUTO 22005KT 0300 FG OVC000/// 05/05 Q1037 FG SW (220°) 5.8mph 5°C 5°C
22/01/20 03:50 EGNJ 220350Z AUTO 21007KT 0350 FG OVC000/// 05/05 Q1037 FG SSW (210°) 8.1mph 5°C 5°C
22/01/20 03:20 EGNJ 220320Z AUTO 21007KT 1300 BR OVC000/// 05/05 Q1037 BR SSW (210°) 8.1mph 5°C 5°C
22/01/20 02:50 EGNJ 220250Z AUTO 22007KT 2400 BR OVC000/// 04/04 Q1037 BR SW (220°) 8.1mph 4°C 4°C
22/01/20 02:20 EGNJ 220220Z AUTO 21008KT 0800 FG OVC000/// 04/04 Q1037 FG SSW (210°) 9.2mph 4°C 4°C
22/01/20 01:50 EGNJ 220150Z AUTO 21008KT 0150 FG OVC000/// 04/04 Q1037 FG SSW (210°) 9.2mph 4°C 4°C
22/01/20 01:20 EGNJ 220120Z AUTO 21009KT 0200 FG OVC000/// 04/04 Q1037 FG SSW (210°) 10.4mph 4°C 4°C
22/01/20 00:50 EGNJ 220050Z AUTO 22004KT 0150 FG BKN000/// OVC003/// 03/03 Q1038 FG SW (220°) 4.6mph 3°C 3°C
22/01/20 00:20 EGNJ 220020Z AUTO 20008KT 0400 FG BKN000/// BKN003/// 04/04 Q1038 FG SSW (200°) 9.2mph 4°C 4°C
21/01/20 23:50 EGNJ 212350Z AUTO 21007KT 1200 BR BKN000/// 05/05 Q1038 BR SSW (210°) 8.1mph 5°C 5°C
21/01/20 23:20 EGNJ 212320Z AUTO 20007KT 0200 FG SCT000/// BKN003/// 04/04 Q1038 FG SSW (200°) 8.1mph 4°C 4°C
21/01/20 22:50 EGNJ 212250Z AUTO 21007KT 3200 BR BKN004/// BKN040/// 05/05 Q1038 BR SSW (210°) 8.1mph 5°C 5°C
21/01/20 22:20 EGNJ 212220Z AUTO 20006KT 3000 BR SCT004/// BKN008/// BKN036/// 05/05 Q1038 BR SSW (200°) 6.9mph 5°C 5°C
21/01/20 21:50 EGNJ 212150Z AUTO 20007KT 3700 BR FEW005/// BKN041/// 05/05 Q1038 BR SSW (200°) 8.1mph 5°C 5°C
21/01/20 21:20 EGNJ 212120Z AUTO 24005KT 7000 SCT045/// 06/05 Q1038 WSW (240°) 5.8mph 6°C 5°C
21/01/20 20:50 EGNJ 212050Z 23007KT 8000 FEW010 05/05 Q1038 SW (230°) 8.1mph 5°C 5°C
21/01/20 20:20 EGNJ 212020Z 23006KT 8000 FEW010 04/04 Q1038 SW (230°) 6.9mph 4°C 4°C
21/01/20 19:50 EGNJ 211950Z 22005KT 8000 FEW010 04/03 Q1039 SW (220°) 5.8mph 4°C 3°C
21/01/20 19:20 EGNJ 211920Z 21004KT 9000 FEW010 04/04 Q1038 SSW (210°) 4.6mph 4°C 4°C
21/01/20 18:20 EGNJ 211820Z 24003KT 9999 BKN010 04/04 Q1038 WSW (240°) 3.5mph 4°C 4°C
21/01/20 17:50 EGNJ 211750Z 24006KT 9999 FEW035 04/02 Q1038 WSW (240°) 6.9mph 4°C 2°C
21/01/20 17:20 EGNJ 211720Z 22006KT 9999 FEW035 05/04 Q1038 SW (220°) 6.9mph 5°C 4°C
21/01/20 16:50 EGNJ 211650Z 20007KT 9999 FEW035 04/04 Q1038 SSW (200°) 8.1mph 4°C 4°C
21/01/20 16:20 EGNJ 211620Z 21004KT 9999 FEW035 05/04 Q1038 SSW (210°) 4.6mph 5°C 4°C
21/01/20 15:20 EGNJ 211520Z 22004KT 9999 FEW035 08/05 Q1039 SW (220°) 4.6mph 8°C 5°C
21/01/20 14:50 EGNJ 211450Z 24005KT CAVOK 09/05 Q1039 WSW (240°) 5.8mph 9°C 5°C
21/01/20 14:20 EGNJ 211420Z 22007KT 9999 FEW035 08/05 Q1039 SW (220°) 8.1mph 8°C 5°C
21/01/20 13:50 EGNJ 211350Z 23005KT 9999 FEW042 08/05 Q1039 SW (230°) 5.8mph 8°C 5°C
21/01/20 13:20 EGNJ 211320Z 24006KT CAVOK 07/04 Q1040 WSW (240°) 6.9mph 7°C 4°C
21/01/20 12:50 EGNJ 211250Z 21008KT CAVOK 07/04 Q1040 SSW (210°) 9.2mph 7°C 4°C
21/01/20 12:20 EGNJ 211220Z 21009KT 9999 FEW028 06/04 Q1040 SSW (210°) 10.4mph 6°C 4°C
21/01/20 11:50 EGNJ 211150Z 21008KT 9999 FEW030 06/04 Q1040 SSW (210°) 9.2mph 6°C 4°C
21/01/20 11:20 EGNJ 211120Z 21007KT 9999 FEW030 05/04 Q1041 SSW (210°) 8.1mph 5°C 4°C
21/01/20 10:50 EGNJ 211050Z 21008KT CAVOK 04/03 Q1041 SSW (210°) 9.2mph 4°C 3°C
21/01/20 10:20 EGNJ 211020Z 20010KT CAVOK 03/02 Q1041 SSW (200°) 11.5mph 3°C 2°C
21/01/20 09:50 EGNJ 210950Z 20010KT CAVOK 03/02 Q1041 SSW (200°) 11.5mph 3°C 2°C
21/01/20 09:20 EGNJ 210920Z 22008KT 9000 FEW025 02/02 Q1041 SW (220°) 9.2mph 2°C 2°C
21/01/20 08:50 EGNJ 210850Z 22008KT 7000 FEW025 01/01 Q1041 SW (220°) 9.2mph 1°C 1°C
21/01/20 08:20 EGNJ 210820Z 22007KT 8000 FEW025 02/01 Q1041 SW (220°) 8.1mph 2°C 1°C
21/01/20 07:50 EGNJ 210750Z 22007KT 9000 NSC 02/01 Q1040 SW (220°) 8.1mph 2°C 1°C
21/01/20 07:20 EGNJ 210720Z 21006KT 9000 NSC 02/01 Q1040 SSW (210°) 6.9mph 2°C 1°C
21/01/20 06:50 EGNJ 210650Z 21008KT 9000 NSC 01/01 Q1040 SSW (210°) 9.2mph 1°C 1°C